createdAt,value
2022-08-22T00:00:13.484Z,11.82
2022-08-22T00:03:00.573Z,9.77
2022-08-22T00:03:02.026Z,9.68
2022-08-22T00:03:02.139Z,9.65
2022-08-22T00:03:07.954Z,9.87
2022-08-22T00:03:15.795Z,8.57
2022-08-22T00:05:39.323Z,10.48
2022-08-22T00:08:11.032Z,10.00
2022-08-22T00:10:45.854Z,9.77
2022-08-22T00:13:17.243Z,12.27
2022-08-22T00:15:49.635Z,11.40
2022-08-22T00:18:20.704Z,13.10
2022-08-22T00:20:54.110Z,9.33
2022-08-22T00:23:24.682Z,9.10
2022-08-22T00:25:56.583Z,10.65
2022-08-22T00:28:27.157Z,10.00
2022-08-22T00:30:59.900Z,9.93
2022-08-22T00:33:31.122Z,7.75
2022-08-22T00:36:07.079Z,10.50
2022-08-22T00:38:37.830Z,11.82
2022-08-22T00:41:09.473Z,9.17
2022-08-22T00:43:52.455Z,8.73
2022-08-22T00:46:37.420Z,9.10
2022-08-22T00:49:14.989Z,10.95
2022-08-22T00:52:01.033Z,11.25
2022-08-22T00:54:38.483Z,8.68
2022-08-22T00:57:18.344Z,10.40
2022-08-22T01:00:06.535Z,12.50
2022-08-22T01:02:42.889Z,14.50
2022-08-22T01:05:25.208Z,11.13
2022-08-22T01:08:02.292Z,7.77
2022-08-22T01:10:37.249Z,10.47
2022-08-22T01:13:14.002Z,8.38
2022-08-22T01:15:44.059Z,10.40
2022-08-22T01:18:30.356Z,12.60
2022-08-22T01:21:24.374Z,8.47
2022-08-22T01:24:11.526Z,11.97
2022-08-22T01:26:56.450Z,8.60
2022-08-22T01:29:47.317Z,8.50
2022-08-22T01:32:32.301Z,9.60
2022-08-22T01:35:18.212Z,9.63
2022-08-22T01:37:57.962Z,11.07
2022-08-22T01:40:47.574Z,12.10
2022-08-22T01:43:59.362Z,8.97
2022-08-22T01:46:26.550Z,12.80
2022-08-22T01:48:57.772Z,11.57
2022-08-22T01:51:32.455Z,9.30
2022-08-22T01:54:04.451Z,13.60
2022-08-22T01:56:35.962Z,9.60
2022-08-22T01:59:10.857Z,9.83
2022-08-22T02:01:54.960Z,9.77
2022-08-22T02:04:30.594Z,9.93
2022-08-22T02:07:04.613Z,10.17
2022-08-22T02:09:36.428Z,13.00
2022-08-22T02:12:21.705Z,9.93
2022-08-22T02:14:54.731Z,11.27
2022-08-22T02:17:24.811Z,10.90
2022-08-22T02:19:58.718Z,10.47
2022-08-22T02:22:44.311Z,11.87
2022-08-22T02:25:16.844Z,11.40
2022-08-22T02:27:52.838Z,9.70
2022-08-22T02:30:23.017Z,10.17
2022-08-22T02:32:56.137Z,9.33
2022-08-22T02:35:28.040Z,8.67
2022-08-22T02:38:01.035Z,8.47
2022-08-22T02:40:32.332Z,10.00
2022-08-22T02:43:04.652Z,10.00
2022-08-22T02:45:39.009Z,10.63
2022-08-22T02:48:13.201Z,11.60
2022-08-22T02:50:44.523Z,10.53
2022-08-22T02:53:18.993Z,9.17
2022-08-22T02:55:54.082Z,10.40
2022-08-22T02:58:26.134Z,11.63
2022-08-22T03:01:10.579Z,9.33
2022-08-22T03:03:40.012Z,10.90
2022-08-22T03:06:09.927Z,11.30
2022-08-22T03:08:42.921Z,10.77
2022-08-22T03:11:21.070Z,9.80
2022-08-22T03:13:54.413Z,10.00
2022-08-22T03:16:27.968Z,12.13
2022-08-22T03:18:58.555Z,10.17
2022-08-22T03:21:30.330Z,12.17
2022-08-22T03:24:03.301Z,9.77
2022-08-22T03:26:36.447Z,11.17
2022-08-22T03:29:07.688Z,12.03
2022-08-22T03:31:37.949Z,12.67
2022-08-22T03:34:22.221Z,12.83
2022-08-22T03:37:00.133Z,11.60
2022-08-22T03:39:40.804Z,10.37
2022-08-22T03:42:21.860Z,9.87
2022-08-22T03:45:12.673Z,10.07
2022-08-22T03:48:00.287Z,11.03
2022-08-22T03:50:45.580Z,9.07
2022-08-22T03:53:24.220Z,8.50
2022-08-22T03:56:25.826Z,10.97
2022-08-22T03:59:06.845Z,11.27
2022-08-22T04:01:53.305Z,8.80
2022-08-22T04:04:36.547Z,9.80
2022-08-22T04:07:28.173Z,9.40
2022-08-22T04:10:18.554Z,12.37
2022-08-22T04:13:01.461Z,12.27
2022-08-22T04:15:50.882Z,11.60
2022-08-22T04:18:29.322Z,12.27
2022-08-22T04:21:19.820Z,10.77
2022-08-22T04:24:03.960Z,10.90
2022-08-22T04:26:37.241Z,12.07
2022-08-22T04:29:08.338Z,11.43
2022-08-22T04:31:44.400Z,8.37
2022-08-22T04:34:16.920Z,11.17
2022-08-22T04:36:48.198Z,8.57
2022-08-22T04:39:18.752Z,11.77
2022-08-22T04:41:50.648Z,9.90
2022-08-22T04:44:21.279Z,8.17
2022-08-22T04:46:53.829Z,8.30
2022-08-22T04:49:24.888Z,11.43
2022-08-22T04:51:55.174Z,13.93
2022-08-22T04:54:31.790Z,10.37
2022-08-22T04:57:10.295Z,13.50
2022-08-22T04:59:38.815Z,8.77
2022-08-22T05:02:10.658Z,11.60
2022-08-22T05:04:40.946Z,12.53
2022-08-22T05:07:13.390Z,11.73
2022-08-22T05:09:44.599Z,10.83
2022-08-22T05:12:15.500Z,9.90
2022-08-22T05:14:45.302Z,11.50
2022-08-22T05:17:17.137Z,7.43
2022-08-22T05:19:50.564Z,9.73
2022-08-22T05:22:21.754Z,12.20
2022-08-22T05:24:51.237Z,8.20
2022-08-22T05:27:21.369Z,11.30
2022-08-22T05:29:57.520Z,13.37
2022-08-22T05:32:29.176Z,11.07
2022-08-22T05:34:59.948Z,12.20
2022-08-22T05:37:34.456Z,9.03
2022-08-22T05:40:03.576Z,10.87
2022-08-22T05:42:34.879Z,10.63
2022-08-22T05:45:04.640Z,12.77
2022-08-22T05:47:37.317Z,11.30
2022-08-22T05:50:07.191Z,12.10
2022-08-22T05:52:42.754Z,11.17
2022-08-22T05:55:18.581Z,10.37
2022-08-22T05:57:50.911Z,11.63
2022-08-22T06:00:21.732Z,11.60
2022-08-22T06:02:55.766Z,12.90
2022-08-22T06:05:26.780Z,9.57
2022-08-22T06:07:57.377Z,9.73
2022-08-22T06:10:28.090Z,10.23
2022-08-22T06:13:01.227Z,10.47
2022-08-22T06:15:32.079Z,9.70
2022-08-22T06:18:05.088Z,8.77
2022-08-22T06:20:35.268Z,9.60
2022-08-22T06:23:04.360Z,13.13
2022-08-22T06:25:34.216Z,9.73
2022-08-22T06:28:04.532Z,10.32
2022-08-22T06:30:33.656Z,10.82
2022-08-22T06:33:06.839Z,11.82
2022-08-22T06:36:00.518Z,13.07
2022-08-22T06:38:32.426Z,13.63
2022-08-22T06:41:02.264Z,13.00
2022-08-22T06:43:34.167Z,11.05
2022-08-22T06:46:02.735Z,12.02
2022-08-22T06:48:32.841Z,10.50
2022-08-22T06:51:01.997Z,11.02
2022-08-22T06:53:34.374Z,13.68
2022-08-22T06:56:05.731Z,13.13
2022-08-22T06:58:35.908Z,12.23
2022-08-22T07:01:11.716Z,13.90
2022-08-22T07:03:46.864Z,14.38
2022-08-22T07:06:16.401Z,11.57
2022-08-22T07:08:45.362Z,11.95
2022-08-22T07:11:17.393Z,15.68
2022-08-22T07:13:47.450Z,13.88
2022-08-22T07:16:18.317Z,13.65
2022-08-22T07:18:53.273Z,15.85
2022-08-22T07:21:26.171Z,13.98
2022-08-22T07:23:55.739Z,14.38
2022-08-22T07:26:29.603Z,11.80
2022-08-22T07:29:05.764Z,11.63
2022-08-22T07:31:39.870Z,11.68
2022-08-22T07:34:26.142Z,10.23
2022-08-22T07:36:58.282Z,10.60
2022-08-22T07:39:28.982Z,10.60
2022-08-22T07:42:04.362Z,9.05
2022-08-22T07:44:35.260Z,11.10
2022-08-22T07:47:07.263Z,7.22
2022-08-22T07:49:38.718Z,9.40
2022-08-22T07:52:14.741Z,9.45
2022-08-22T07:54:47.156Z,8.65
2022-08-22T07:57:16.957Z,7.60
2022-08-22T07:59:49.738Z,10.00
2022-08-22T08:02:19.396Z,9.40
2022-08-22T08:04:50.864Z,9.40
2022-08-22T08:07:21.350Z,7.85
2022-08-22T08:09:51.832Z,7.60
2022-08-22T08:12:22.007Z,8.07
2022-08-22T08:14:53.839Z,8.75
2022-08-22T08:17:24.043Z,7.63
2022-08-22T08:19:54.348Z,6.88
2022-08-22T08:22:26.363Z,7.22
2022-08-22T08:24:56.257Z,5.57
2022-08-22T08:27:44.040Z,7.80
2022-08-22T08:30:18.430Z,7.88
2022-08-22T08:32:49.875Z,7.03
2022-08-22T08:35:25.396Z,7.22
2022-08-22T08:37:56.198Z,6.63
2022-08-22T08:40:48.505Z,8.93
2022-08-22T08:43:34.307Z,4.43
2022-08-22T08:46:16.769Z,5.55
2022-08-22T08:49:06.343Z,5.72
2022-08-22T08:51:48.607Z,9.73
2022-08-22T08:54:39.072Z,5.63
2022-08-22T08:57:13.559Z,8.02
2022-08-22T08:59:46.370Z,4.40
2022-08-22T09:02:34.946Z,4.65
2022-08-22T09:05:13.577Z,6.68
2022-08-22T09:08:02.554Z,6.60
2022-08-22T09:10:47.541Z,5.97
2022-08-22T09:13:29.026Z,5.78
2022-08-22T09:16:09.953Z,8.35
2022-08-22T09:19:02.377Z,4.97
2022-08-22T09:21:54.708Z,5.60
2022-08-22T09:24:38.753Z,10.13
2022-08-22T09:27:15.999Z,8.98
2022-08-22T09:29:54.724Z,6.13
2022-08-22T09:32:29.864Z,6.05
2022-08-22T09:35:02.146Z,5.40
2022-08-22T09:37:35.941Z,4.57
2022-08-22T09:40:13.355Z,6.18
2022-08-22T09:42:48.079Z,6.72
2022-08-22T09:45:33.618Z,6.50
2022-08-22T09:48:07.311Z,3.95
2022-08-22T09:50:44.740Z,5.00
2022-08-22T09:53:22.301Z,7.53
2022-08-22T09:55:55.289Z,3.95
2022-08-22T09:58:28.543Z,5.75
2022-08-22T10:00:59.630Z,8.45
2022-08-22T10:03:34.104Z,5.78
2022-08-22T10:06:09.120Z,6.45
2022-08-22T10:08:46.084Z,6.72
2022-08-22T10:11:25.815Z,3.95
2022-08-22T10:14:00.516Z,4.35
2022-08-22T10:16:52.925Z,4.45
2022-08-22T10:19:25.064Z,5.80
2022-08-22T10:22:13.329Z,5.43
2022-08-22T10:24:45.506Z,4.63
2022-08-22T10:27:17.956Z,6.78
2022-08-22T10:29:55.988Z,3.40
2022-08-22T10:32:30.941Z,5.68
2022-08-22T10:35:03.351Z,3.72
2022-08-22T10:37:39.507Z,5.07
2022-08-22T10:40:12.134Z,8.48
2022-08-22T10:42:44.032Z,5.43
2022-08-22T10:45:23.727Z,6.70
2022-08-22T10:48:23.354Z,4.95
2022-08-22T10:50:52.608Z,7.28
2022-08-22T10:53:34.785Z,4.95
2022-08-22T10:56:11.221Z,4.57
2022-08-22T10:58:44.077Z,5.75
2022-08-22T11:01:41.089Z,7.95
2022-08-22T11:04:06.677Z,5.78
2022-08-22T11:06:39.249Z,3.72
2022-08-22T11:09:17.084Z,7.97
2022-08-22T11:11:47.570Z,5.53
2022-08-22T11:14:29.185Z,5.75
2022-08-22T11:17:00.218Z,5.65
2022-08-22T11:19:39.581Z,3.85
2022-08-22T11:22:12.155Z,4.82
2022-08-22T11:24:59.399Z,5.57
2022-08-22T11:27:39.756Z,6.30
2022-08-22T11:30:18.126Z,8.35
2022-08-22T11:33:07.486Z,4.68
2022-08-22T11:35:39.924Z,3.72
2022-08-22T11:38:17.942Z,5.90
2022-08-22T11:40:48.529Z,3.70
2022-08-22T11:43:32.523Z,6.53
2022-08-22T11:46:19.984Z,5.65
2022-08-22T11:48:57.050Z,4.18
2022-08-22T11:51:34.324Z,4.95
2022-08-22T11:54:09.819Z,6.13
2022-08-22T11:56:41.840Z,5.88
2022-08-22T11:59:19.727Z,5.35
2022-08-22T12:01:53.497Z,8.15
2022-08-22T12:04:29.769Z,4.50
2022-08-22T12:07:03.445Z,5.03
2022-08-22T12:09:35.928Z,6.38
2022-08-22T12:12:24.794Z,5.85
2022-08-22T12:14:58.175Z,7.72
2022-08-22T12:17:55.065Z,5.78
2022-08-22T12:20:35.793Z,4.65
2022-08-22T12:23:18.095Z,6.72
2022-08-22T12:26:03.447Z,6.07
2022-08-22T12:28:34.618Z,6.20
2022-08-22T12:31:08.992Z,6.20
2022-08-22T12:33:50.875Z,8.40
2022-08-22T12:36:27.061Z,4.70
2022-08-22T12:39:13.152Z,6.70
2022-08-22T12:42:04.151Z,4.22
2022-08-22T12:44:39.020Z,6.60
2022-08-22T12:47:18.918Z,4.30
2022-08-22T12:50:02.927Z,6.32
2022-08-22T12:52:38.675Z,6.40
2022-08-22T12:55:19.874Z,3.53
2022-08-22T12:58:00.860Z,8.05
2022-08-22T13:00:32.777Z,6.47
2022-08-22T13:03:04.851Z,4.95
2022-08-22T13:05:38.366Z,5.85
2022-08-22T13:08:12.721Z,3.17
2022-08-22T13:10:46.846Z,3.42
2022-08-22T13:13:17.613Z,8.02
2022-08-22T13:16:00.410Z,5.80
2022-08-22T13:18:33.509Z,5.35
2022-08-22T13:21:05.947Z,5.75
2022-08-22T13:23:39.933Z,4.65
2022-08-22T13:26:12.672Z,3.58
2022-08-22T13:29:22.037Z,4.78
2022-08-22T13:31:46.317Z,6.28
2022-08-22T13:34:28.871Z,3.50
2022-08-22T13:37:00.362Z,4.80
2022-08-22T13:39:34.684Z,4.82
2022-08-22T13:42:07.653Z,6.78
2022-08-22T13:44:44.956Z,5.68
2022-08-22T13:47:16.050Z,4.35
2022-08-22T13:49:46.992Z,4.22
2022-08-22T13:52:30.057Z,3.00
2022-08-22T13:55:01.498Z,4.20
2022-08-22T13:57:34.773Z,3.45
2022-08-22T14:00:09.757Z,3.75
2022-08-22T14:03:00.802Z,3.30
2022-08-22T14:05:37.462Z,1.88
2022-08-22T14:08:15.253Z,3.70
2022-08-22T14:10:55.227Z,2.97
2022-08-22T14:13:40.088Z,4.32
2022-08-22T14:16:12.818Z,2.85
2022-08-22T14:18:50.135Z,3.38
2022-08-22T14:21:33.473Z,4.75
2022-08-22T14:24:12.711Z,4.32
2022-08-22T14:26:51.419Z,5.00
2022-08-22T14:29:21.523Z,3.13
2022-08-22T14:32:00.932Z,2.95
2022-08-22T14:34:30.622Z,3.95
2022-08-22T14:37:01.124Z,5.65
2022-08-22T14:39:32.017Z,4.65
2022-08-22T14:42:10.885Z,3.72
2022-08-22T14:44:44.139Z,4.13
2022-08-22T14:47:51.066Z,3.95
2022-08-22T14:50:11.260Z,2.83
2022-08-22T14:52:41.287Z,4.88
2022-08-22T14:55:13.139Z,6.03
2022-08-22T14:57:46.107Z,2.70
2022-08-22T15:00:26.152Z,3.53
2022-08-22T15:03:09.505Z,5.00
2022-08-22T15:05:49.721Z,4.95
2022-08-22T15:08:24.296Z,5.07
2022-08-22T15:11:11.471Z,4.13
2022-08-22T15:13:51.100Z,3.45
2022-08-22T15:16:22.149Z,3.67
2022-08-22T15:18:51.728Z,3.10
2022-08-22T15:21:24.511Z,3.33
2022-08-22T15:23:54.771Z,5.18
2022-08-22T15:26:28.745Z,2.35
2022-08-22T15:29:02.894Z,4.82
2022-08-22T15:31:33.390Z,3.60
2022-08-22T15:34:10.006Z,3.33
2022-08-22T15:36:58.388Z,2.90
2022-08-22T15:39:29.622Z,2.45
2022-08-22T15:41:58.892Z,5.45
2022-08-22T15:44:33.519Z,3.17
2022-08-22T15:47:04.913Z,2.25
2022-08-22T15:49:36.585Z,3.35
2022-08-22T15:52:16.843Z,2.28
2022-08-22T15:55:01.746Z,4.30
2022-08-22T15:57:34.947Z,3.47
2022-08-22T16:00:12.190Z,3.33
2022-08-22T16:02:42.421Z,2.53
2022-08-22T16:05:25.313Z,3.00
2022-08-22T16:08:02.818Z,5.22
2022-08-22T16:10:33.117Z,4.03
2022-08-22T16:13:15.340Z,3.00
2022-08-22T16:16:00.168Z,3.42
2022-08-22T16:18:47.293Z,2.20
2022-08-22T16:21:16.150Z,3.72
2022-08-22T16:24:02.230Z,5.35
2022-08-22T16:26:39.675Z,3.85
2022-08-22T16:29:26.468Z,2.55
2022-08-22T16:32:00.970Z,3.45
2022-08-22T16:34:43.941Z,4.57
2022-08-22T16:37:32.777Z,3.42
2022-08-22T16:40:14.636Z,4.68
2022-08-22T16:42:46.377Z,6.10
2022-08-22T16:45:20.788Z,4.78
2022-08-22T16:47:52.728Z,3.83
2022-08-22T16:50:32.973Z,7.70
2022-08-22T16:53:02.956Z,8.23
2022-08-22T16:55:58.377Z,3.70
2022-08-22T16:58:56.645Z,4.13
2022-08-22T17:01:32.700Z,4.85
2022-08-22T17:04:08.115Z,4.82
2022-08-22T17:06:45.621Z,3.40
2022-08-22T17:09:22.119Z,3.38
2022-08-22T17:11:56.747Z,3.30
2022-08-22T17:14:43.979Z,3.35
2022-08-22T17:17:18.455Z,4.50
2022-08-22T17:19:54.954Z,2.70
2022-08-22T17:22:29.154Z,3.75
2022-08-22T17:25:04.622Z,3.35
2022-08-22T17:27:35.996Z,3.05
2022-08-22T17:30:09.233Z,3.25
2022-08-22T17:32:43.016Z,4.05
2022-08-22T17:35:19.579Z,3.28
2022-08-22T17:37:55.679Z,3.72
2022-08-22T17:40:33.214Z,3.28
2022-08-22T17:43:11.254Z,4.15
2022-08-22T17:45:47.978Z,3.15
2022-08-22T17:48:20.264Z,6.63
2022-08-22T17:50:52.872Z,3.58
2022-08-22T17:53:29.654Z,3.90
2022-08-22T17:56:02.113Z,2.47
2022-08-22T17:58:43.378Z,8.10
2022-08-22T18:01:15.446Z,2.67
2022-08-22T18:03:47.900Z,3.42
2022-08-22T18:06:22.215Z,3.08
2022-08-22T18:11:46.919Z,3.13
2022-08-22T18:14:23.469Z,2.95
2022-08-22T18:16:52.533Z,4.20
2022-08-22T18:19:34.709Z,3.80
2022-08-22T18:22:07.878Z,2.45
2022-08-22T18:24:40.120Z,5.53
2022-08-22T18:27:10.550Z,3.08
2022-08-22T18:30:02.194Z,3.22
2022-08-22T18:32:32.999Z,5.20
2022-08-22T18:35:05.076Z,4.32
2022-08-22T18:37:50.808Z,2.80
2022-08-22T18:40:26.817Z,4.15
2022-08-22T18:42:58.906Z,3.90
2022-08-22T18:45:44.064Z,2.60
2022-08-22T18:48:19.719Z,1.60
2022-08-22T18:50:48.381Z,3.80
2022-08-22T18:53:31.670Z,3.67
2022-08-22T18:56:03.974Z,4.05
2022-08-22T18:58:39.979Z,3.78
2022-08-22T19:01:17.576Z,3.33
2022-08-22T19:03:53.281Z,2.45
2022-08-22T19:06:44.709Z,4.72
2022-08-22T19:09:27.305Z,3.08
2022-08-22T19:12:03.311Z,3.40
2022-08-22T19:14:42.357Z,2.90
2022-08-22T19:17:22.396Z,4.32
2022-08-22T19:20:13.986Z,2.47
2022-08-22T19:22:42.918Z,5.82
2022-08-22T19:25:13.578Z,4.93
2022-08-22T19:27:44.687Z,2.83
2022-08-22T19:30:31.700Z,3.20
2022-08-22T19:33:02.080Z,2.40
2022-08-22T19:35:37.165Z,4.22
2022-08-22T19:38:07.286Z,4.55
2022-08-22T19:40:49.377Z,5.45
2022-08-22T19:43:25.917Z,4.15
2022-08-22T19:45:55.844Z,4.05
2022-08-22T19:48:25.854Z,3.25
2022-08-22T19:51:08.271Z,8.25
2022-08-22T19:53:41.753Z,3.17
2022-08-22T19:56:14.289Z,2.83
2022-08-22T19:58:53.350Z,2.15
2022-08-22T20:01:35.687Z,5.45
2022-08-22T20:04:09.235Z,3.55
2022-08-22T20:06:44.494Z,2.55
2022-08-22T20:09:19.263Z,3.50
2022-08-22T20:11:50.721Z,6.50
2022-08-22T20:14:30.569Z,4.45
2022-08-22T20:17:03.380Z,4.13
2022-08-22T20:19:40.076Z,3.88
2022-08-22T20:22:11.630Z,5.20
2022-08-22T20:24:46.989Z,3.45
2022-08-22T20:27:17.790Z,6.15
2022-08-22T20:29:53.231Z,3.42
2022-08-22T20:32:23.532Z,2.70
2022-08-22T20:34:55.268Z,4.82
2022-08-22T20:37:50.658Z,3.45
2022-08-22T20:40:25.850Z,4.43
2022-08-22T20:43:11.674Z,2.33
2022-08-22T20:45:49.558Z,4.13
2022-08-22T20:48:18.256Z,6.93
2022-08-22T20:50:46.656Z,5.25
2022-08-22T20:53:19.038Z,4.03
2022-08-22T20:55:54.727Z,3.53
2022-08-22T20:58:25.184Z,3.45
2022-08-22T21:01:00.132Z,3.90
2022-08-22T21:03:37.074Z,3.30
2022-08-22T21:06:13.216Z,4.43
2022-08-22T21:08:42.193Z,4.35
2022-08-22T21:11:29.240Z,4.07
2022-08-22T21:13:59.280Z,5.05
2022-08-22T21:16:32.009Z,12.45
2022-08-22T21:19:02.008Z,5.28
2022-08-22T21:21:31.451Z,5.72
2022-08-22T21:24:01.279Z,4.78
2022-08-22T21:26:30.881Z,4.75
2022-08-22T21:29:00.813Z,3.45
2022-08-22T21:31:31.821Z,3.72
2022-08-22T21:34:01.070Z,3.00
2022-08-22T21:36:31.183Z,2.33
2022-08-22T21:39:00.963Z,4.72
2022-08-22T21:41:33.663Z,3.28
2022-08-22T21:44:16.902Z,5.50
2022-08-22T21:46:47.010Z,4.07
2022-08-22T21:49:22.422Z,4.00
2022-08-22T21:51:51.487Z,2.55
2022-08-22T21:54:24.898Z,5.60
2022-08-22T21:56:54.552Z,3.67
2022-08-22T21:59:25.053Z,3.72
2022-08-22T22:01:55.467Z,3.88
2022-08-22T22:04:24.143Z,2.58
2022-08-22T22:06:52.595Z,3.22
2022-08-22T22:09:20.976Z,4.25
2022-08-22T22:11:50.424Z,4.10
2022-08-22T22:14:18.781Z,4.68
2022-08-22T22:16:47.420Z,3.35
2022-08-22T22:19:17.255Z,3.97
2022-08-22T22:21:45.846Z,4.93
2022-08-22T22:24:14.335Z,4.65
2022-08-22T22:26:42.693Z,4.30
2022-08-22T22:29:11.096Z,4.23
2022-08-22T22:31:39.431Z,7.50
2022-08-22T22:34:07.827Z,5.50
2022-08-22T22:36:37.668Z,4.67
2022-08-22T22:39:06.067Z,3.73
2022-08-22T22:41:34.600Z,4.10
2022-08-22T22:44:03.243Z,3.92
2022-08-22T22:46:31.650Z,4.82
2022-08-22T22:49:00.391Z,4.00
2022-08-22T22:51:28.906Z,4.07
2022-08-22T22:53:59.181Z,3.93
2022-08-22T22:56:28.073Z,4.10
2022-08-22T22:59:12.565Z,4.00
2022-08-22T23:02:00.932Z,3.70
2022-08-22T23:04:29.457Z,2.73
2022-08-22T23:06:57.829Z,5.37
2022-08-22T23:09:38.116Z,5.07
2022-08-22T23:12:07.803Z,5.03
2022-08-22T23:14:36.558Z,3.60
2022-08-22T23:17:05.730Z,5.43
2022-08-22T23:19:36.153Z,4.37
2022-08-22T23:22:04.503Z,5.30
2022-08-22T23:24:35.825Z,3.00
2022-08-22T23:27:04.268Z,4.47
2022-08-22T23:29:32.986Z,5.03
2022-08-22T23:32:03.194Z,5.30
2022-08-22T23:34:36.280Z,4.20
2022-08-22T23:37:08.882Z,4.27
2022-08-22T23:39:39.181Z,5.07
2022-08-22T23:42:08.258Z,5.00
2022-08-22T23:44:37.622Z,4.73
2022-08-22T23:47:06.864Z,6.73
2022-08-22T23:49:36.228Z,6.10
2022-08-22T23:52:05.308Z,5.53
2022-08-22T23:54:34.206Z,5.00
2022-08-22T23:57:11.899Z,8.07
2022-08-22T23:59:48.038Z,7.17
